Time;durP1;ratioP1;P1;durP2;ratioP2;P2;SDS_P1;SDS_P2;PMS_P1;PMS_P2;Temp;Humidity;BMP_temperature;BMP_pressure;BME280_temperature;BME280_humidity;BME280_pressure;Samples;Min_cycle;Max_cycle;Signal;HPM_P1;HPM_P2
2021/05/08 00:01:00;;;;;;;14.50;10.98;;;;;;;4.40;78.51;95704.09;5028832;28;20042;-68
2021/05/08 00:03:25;;;;;;;11.15;9.35;;;;;;;4.30;79.02;95693.47;5028449;28;20127;-68
2021/05/08 00:05:51;;;;;;;12.95;10.13;;;;;;;4.36;79.02;95709.09;5028784;28;20030;-68
2021/05/08 00:08:16;;;;;;;11.20;9.73;;;;;;;4.33;79.14;95716.69;5030393;28;20116;-68
2021/05/08 00:10:43;;;;;;;12.30;11.10;;;;;;;4.15;79.45;95686.25;5028634;28;20068;-68
2021/05/08 00:13:09;;;;;;;11.25;10.05;;;;;;;4.20;79.14;95696.00;5028333;28;20511;-67
2021/05/08 00:15:34;;;;;;;12.18;9.90;;;;;;;4.14;79.29;95689.91;5028631;28;20088;-68
2021/05/08 00:18:00;;;;;;;16.50;10.50;;;;;;;4.13;79.35;95693.59;5026795;28;20061;-67
2021/05/08 00:20:25;;;;;;;13.18;9.70;;;;;;;4.06;79.27;95685.91;5030517;28;20430;-68
2021/05/08 00:22:50;;;;;;;13.48;11.43;;;;;;;4.16;79.40;95703.63;5028234;28;20045;-67
2021/05/08 00:25:16;;;;;;;13.82;10.40;;;;;;;4.06;79.33;95699.06;5028492;28;20045;-68
2021/05/08 00:27:41;;;;;;;13.80;11.77;;;;;;;4.06;79.51;95706.16;5026949;28;20666;-68
2021/05/08 00:30:08;;;;;;;13.77;10.90;;;;;;;3.99;79.34;95701.09;5027399;28;20053;-68
2021/05/08 00:32:34;;;;;;;13.85;11.95;;;;;;;3.98;79.57;95717.13;5030071;28;20403;-68
2021/05/08 00:35:00;;;;;;;16.05;12.00;;;;;;;3.86;79.81;95694.38;5028606;28;20101;-68
2021/05/08 00:37:25;;;;;;;14.07;11.20;;;;;;;3.90;79.53;95695.50;5028374;28;20034;-68
2021/05/08 00:39:51;;;;;;;13.52;9.80;;;;;;;3.84;79.38;95703.59;5026795;28;20120;-68
2021/05/08 00:42:16;;;;;;;12.95;11.60;;;;;;;3.71;79.88;95677.66;5026661;28;20041;-68
2021/05/08 00:44:42;;;;;;;15.15;9.60;;;;;;;3.83;80.09;95699.34;5030381;28;20033;-68
2021/05/08 00:47:07;;;;;;;11.32;10.00;;;;;;;3.74;80.17;95669.28;5026711;28;20065;-69
2021/05/08 00:49:33;;;;;;;18.95;12.13;;;;;;;3.76;80.43;95682.97;5028145;28;20499;-68
2021/05/08 00:52:01;;;;;;;13.18;9.00;;;;;;;3.77;80.52;95695.06;5028077;28;20118;-70
2021/05/08 00:54:27;;;;;;;12.05;9.93;;;;;;;3.73;80.42;95686.06;5028682;28;20487;-67
2021/05/08 00:56:52;;;;;;;11.15;9.23;;;;;;;3.68;81.19;95689.44;5032129;28;20032;-67
2021/05/08 00:59:18;;;;;;;10.73;9.52;;;;;;;3.71;81.37;95693.44;5034176;28;20049;-68
2021/05/08 01:01:44;;;;;;;12.30;9.32;;;;;;;3.75;81.01;95687.44;5031856;28;20410;-67
2021/05/08 01:04:10;;;;;;;9.95;8.70;;;;;;;3.71;81.06;95685.53;5032284;28;20466;-68
2021/05/08 01:06:38;;;;;;;10.20;9.10;;;;;;;3.72;80.48;95697.66;5032151;28;20044;-67
2021/05/08 01:09:04;;;;;;;12.40;10.73;;;;;;;3.73;80.81;95699.22;5032028;28;20476;-68
2021/05/08 01:11:30;;;;;;;11.85;10.68;;;;;;;3.71;80.77;95701.31;5032224;28;20120;-69
2021/05/08 01:13:55;;;;;;;14.27;10.95;;;;;;;3.72;80.72;95700.28;5031865;28;20068;-69
2021/05/08 01:16:21;;;;;;;11.45;10.02;;;;;;;3.73;81.07;95691.34;5031470;28;20065;-68
2021/05/08 01:18:51;;;;;;;10.85;9.75;;;;;;;3.78;81.21;95686.94;5031511;28;20132;-68
2021/05/08 01:21:17;;;;;;;13.15;9.98;;;;;;;4.00;81.72;95683.47;5031294;28;20045;-68
2021/05/08 01:23:42;;;;;;;19.00;9.93;;;;;;;4.23;81.04;95688.41;5032222;28;20028;-68
2021/05/08 01:26:08;;;;;;;11.10;8.98;;;;;;;4.28;80.43;95682.41;5030406;28;20045;-68
2021/05/08 01:28:34;;;;;;;10.95;8.90;;;;;;;4.29;79.67;95679.50;5031421;28;20079;-67
2021/05/08 01:30:59;;;;;;;10.52;8.73;;;;;;;4.35;79.86;95696.16;5031623;28;20042;-68
2021/05/08 01:33:24;;;;;;;10.77;8.50;;;;;;;4.26;79.59;95690.56;5029934;28;20048;-68
2021/05/08 01:35:53;;;;;;;8.13;7.32;;;;;;;4.24;79.76;95683.94;5031478;28;20041;-68
2021/05/08 01:38:18;;;;;;;8.18;6.97;;;;;;;4.23;79.25;95695.53;5033144;28;20032;-68
2021/05/08 01:40:44;;;;;;;8.88;7.97;;;;;;;3.68;79.50;95622.88;5031507;28;20042;-69
2021/05/08 01:43:09;;;;;;;12.30;8.85;;;;;;;3.98;79.21;95673.19;5031188;28;20072;-68
2021/05/08 01:45:35;;;;;;;12.20;8.10;;;;;;;4.07;79.87;95695.38;5031259;28;20057;-69
2021/05/08 01:48:03;;;;;;;11.20;8.68;;;;;;;4.06;79.32;95693.81;5030721;28;20029;-68
2021/05/08 01:50:29;;;;;;;10.07;8.48;;;;;;;4.04;79.17;95693.22;5033046;28;20058;-68
2021/05/08 01:52:54;;;;;;;9.05;8.15;;;;;;;3.97;79.14;95673.44;5029631;28;20483;-67
2021/05/08 01:55:26;;;;;;;14.70;8.88;;;;;;;3.99;79.49;95679.22;5031221;28;20033;-67
2021/05/08 01:57:57;;;;;;;9.15;7.72;;;;;;;4.11;79.51;95690.44;5030741;28;20056;-68
2021/05/08 02:00:33;;;;;;;8.93;6.63;;;;;;;4.16;79.60;95683.38;5029619;28;20491;-69
2021/05/08 02:02:59;;;;;;;6.68;6.07;;;;;;;4.24;79.90;95692.63;5030690;28;20272;-68
2021/05/08 02:05:28;;;;;;;8.30;6.65;;;;;;;4.28;79.75;95674.50;5032460;28;20349;-68
2021/05/08 02:07:53;;;;;;;10.02;7.10;;;;;;;4.35;79.50;95677.72;5030690;28;20431;-68
2021/05/08 02:10:20;;;;;;;9.98;7.47;;;;;;;4.52;79.28;95680.25;5030662;28;20087;-69
2021/05/08 02:12:45;;;;;;;8.55;6.93;;;;;;;4.55;79.05;95679.72;5029539;28;20072;-67
2021/05/08 02:15:13;;;;;;;8.93;7.90;;;;;;;4.61;78.61;95678.72;5028679;28;20403;-67
2021/05/08 02:17:39;;;;;;;9.80;7.65;;;;;;;4.65;78.30;95685.06;5032316;28;20030;-67
2021/05/08 02:20:27;;;;;;;8.25;6.82;;;;;;;4.62;78.14;95688.22;5030582;28;20048;-67
2021/05/08 02:22:58;;;;;;;8.60;7.43;;;;;;;4.59;77.71;95678.97;5030208;28;20052;-68
2021/05/08 02:25:24;;;;;;;6.85;6.15;;;;;;;4.58;77.91;95680.00;5029231;28;20740;-68
2021/05/08 02:27:49;;;;;;;7.25;6.55;;;;;;;4.53;78.08;95669.44;5028991;28;20068;-67
2021/05/08 02:30:21;;;;;;;10.40;6.05;;;;;;;4.53;77.67;95682.63;5030455;28;20033;-68
2021/05/08 02:32:46;;;;;;;12.07;5.85;;;;;;;4.36;77.50;95656.41;5030153;28;20017;-66
2021/05/08 02:35:13;;;;;;;9.02;7.15;;;;;;;4.29;77.50;95655.03;5032312;28;20032;-67
2021/05/08 02:37:39;;;;;;;7.50;6.70;;;;;;;4.34;77.54;95661.13;5029945;28;20025;-68
2021/05/08 02:40:10;;;;;;;9.20;8.30;;;;;;;4.32;77.64;95665.84;5030213;28;20044;-68
2021/05/08 02:42:35;;;;;;;8.45;7.60;;;;;;;4.27;77.23;95667.66;5029804;28;20152;-68
2021/05/08 02:45:01;;;;;;;8.63;7.55;;;;;;;4.24;77.28;95674.19;5030193;28;20096;-69
2021/05/08 02:47:26;;;;;;;10.98;8.77;;;;;;;4.19;77.45;95676.78;5031828;28;20025;-68
2021/05/08 02:49:54;;;;;;;14.63;9.07;;;;;;;4.10;77.58;95671.22;5028791;28;20045;-68
2021/05/08 02:52:20;;;;;;;9.23;7.72;;;;;;;4.05;77.69;95673.78;5029768;28;20029;-68
2021/05/08 02:54:46;;;;;;;10.88;8.93;;;;;;;3.99;77.64;95669.50;5029986;28;20155;-68
2021/05/08 02:57:11;;;;;;;9.65;8.38;;;;;;;3.63;77.66;95626.25;5029775;28;20124;-67
2021/05/08 02:59:37;;;;;;;12.13;8.38;;;;;;;3.52;77.85;95619.31;5031880;28;20033;-68
2021/05/08 03:02:03;;;;;;;13.98;9.40;;;;;;;3.69;77.94;95653.44;5028065;28;20034;-68
2021/05/08 03:04:29;;;;;;;9.40;8.05;;;;;;;3.63;78.07;95661.28;5028302;28;20488;-67
2021/05/08 03:06:55;;;;;;;11.32;7.63;;;;;;;3.63;78.77;95663.91;5029520;28;20088;-68
2021/05/08 03:09:20;;;;;;;8.30;7.50;;;;;;;3.59;78.65;95662.81;5029765;28;20037;-68
2021/05/08 03:11:46;;;;;;;9.70;7.82;;;;;;;3.56;78.80;95657.22;5029343;28;20442;-68
2021/05/08 03:14:13;;;;;;;18.20;10.52;;;;;;;3.46;78.95;95642.13;5030287;28;20088;-68
2021/05/08 03:16:39;;;;;;;13.35;9.15;;;;;;;3.45;78.81;95653.69;5029442;28;20052;-68
2021/05/08 03:19:05;;;;;;;13.70;10.25;;;;;;;3.32;79.22;95633.81;5028602;28;20053;-67
2021/05/08 03:21:32;;;;;;;13.55;10.18;;;;;;;3.35;79.36;95649.13;5029119;28;20037;-68
2021/05/08 03:23:58;;;;;;;15.52;9.35;;;;;;;3.33;79.48;95642.53;5029598;28;20029;-68
2021/05/08 03:26:23;;;;;;;9.00;8.10;;;;;;;3.18;79.53;95622.09;5031287;28;20017;-68
2021/05/08 03:28:48;;;;;;;15.23;10.95;;;;;;;3.25;79.95;95627.97;5027965;28;20091;-68
2021/05/08 03:31:14;;;;;;;16.38;10.77;;;;;;;3.26;80.17;95640.06;5029208;28;20064;-68
2021/05/08 03:33:39;;;;;;;12.73;10.35;;;;;;;3.26;80.48;95634.00;5029457;28;20053;-68
2021/05/08 03:36:05;;;;;;;15.88;11.60;;;;;;;3.25;80.65;95640.31;5029310;28;20053;-67
2021/05/08 03:38:30;;;;;;;13.38;9.52;;;;;;;3.15;80.58;95624.41;5030857;28;20388;-68
2021/05/08 03:40:56;;;;;;;12.35;10.13;;;;;;;3.22;80.72;95630.28;5029160;28;21710;-68
2021/05/08 03:43:21;;;;;;;16.40;9.65;;;;;;;3.13;80.86;95620.22;5029192;28;20469;-68
2021/05/08 03:45:49;;;;;;;10.40;8.65;;;;;;;3.16;81.25;95623.38;5029330;28;20049;-69
2021/05/08 03:48:14;;;;;;;15.00;10.23;;;;;;;3.25;80.87;95641.09;5028619;28;20491;-67
2021/05/08 03:50:39;;;;;;;10.93;9.10;;;;;;;3.27;80.81;95630.34;5030788;28;20044;-68
2021/05/08 03:53:05;;;;;;;11.25;8.95;;;;;;;3.24;81.55;95623.75;5028984;28;20492;-69
2021/05/08 03:55:34;;;;;;;15.77;11.50;;;;;;;3.33;81.27;95626.75;5029089;28;20440;-68
2021/05/08 03:57:59;;;;;;;12.88;9.40;;;;;;;3.32;81.40;95623.28;5028823;28;20120;-68
2021/05/08 04:00:26;;;;;;;9.75;8.60;;;;;;;3.33;81.58;95618.84;5027718;28;20132;-67
2021/05/08 04:02:51;;;;;;;9.77;8.80;;;;;;;3.41;80.94;95621.03;5027263;28;20033;-68
2021/05/08 04:05:17;;;;;;;8.90;8.00;;;;;;;3.59;81.27;95633.88;5029651;28;20037;-68
2021/05/08 04:07:42;;;;;;;7.25;6.35;;;;;;;3.75;80.98;95636.66;5028447;28;20502;-67
2021/05/08 04:10:08;;;;;;;8.68;6.68;;;;;;;3.87;80.91;95626.75;5029046;28;20037;-68
2021/05/08 04:12:33;;;;;;;5.80;5.30;;;;;;;4.03;81.15;95631.09;5028569;28;20357;-68
2021/05/08 04:14:59;;;;;;;5.18;4.60;;;;;;;4.15;80.69;95630.97;5028824;28;20029;-67
2021/05/08 04:17:24;;;;;;;4.28;3.88;;;;;;;4.31;80.44;95642.41;5030224;28;20088;-68
2021/05/08 04:19:50;;;;;;;4.05;3.72;;;;;;;4.49;79.94;95643.84;5027167;28;20056;-68
2021/05/08 04:22:15;;;;;;;4.60;3.92;;;;;;;4.68;79.57;95648.47;5028374;28;20568;-68
2021/05/08 04:24:40;;;;;;;5.72;4.40;;;;;;;4.87;79.11;95645.44;5027287;28;20462;-68
2021/05/08 04:27:06;;;;;;;5.28;4.05;;;;;;;5.00;78.64;95637.03;5028102;28;20033;-69
2021/05/08 04:29:31;;;;;;;4.05;3.05;;;;;;;5.30;78.02;95643.53;5034029;28;20025;-69
2021/05/08 04:31:57;;;;;;;5.15;3.25;;;;;;;5.60;77.66;95656.03;5034933;28;20037;-68
2021/05/08 04:34:22;;;;;;;3.80;3.40;;;;;;;5.87;76.98;95653.19;5035086;28;20038;-68
2021/05/08 04:36:47;;;;;;;3.10;2.80;;;;;;;6.17;75.54;95655.13;5034940;28;20121;-67
2021/05/08 04:39:14;;;;;;;3.10;2.78;;;;;;;6.45;74.34;95653.81;5035058;28;20038;-68
2021/05/08 04:41:40;;;;;;;3.05;2.67;;;;;;;6.75;73.41;95666.19;5036663;28;20057;-68
2021/05/08 04:44:06;;;;;;;3.92;2.92;;;;;;;7.04;72.08;95669.06;5035147;28;20044;-69
2021/05/08 04:46:31;;;;;;;3.05;2.67;;;;;;;7.25;70.68;95661.88;5033613;28;20033;-68
2021/05/08 04:48:57;;;;;;;3.38;2.60;;;;;;;7.42;70.24;95665.00;5034706;28;20045;-69
2021/05/08 04:51:22;;;;;;;2.92;2.40;;;;;;;7.58;69.05;95660.44;5034600;28;20029;-69
2021/05/08 04:53:48;;;;;;;2.33;2.15;;;;;;;7.77;68.68;95658.72;5033603;28;20032;-68
2021/05/08 04:56:15;;;;;;;2.33;2.20;;;;;;;7.87;68.26;95649.94;5036743;28;20030;-69
2021/05/08 04:58:41;;;;;;;3.50;2.60;;;;;;;7.88;68.05;95642.78;5034599;28;20034;-68
2021/05/08 05:01:06;;;;;;;2.95;2.58;;;;;;;7.91;67.50;95648.34;5034712;28;20044;-68
2021/05/08 05:03:31;;;;;;;3.03;2.10;;;;;;;7.91;67.51;95643.03;5033063;28;20120;-67
2021/05/08 05:05:57;;;;;;;3.80;2.30;;;;;;;7.98;67.54;95648.03;5034825;28;20384;-68
2021/05/08 05:08:22;;;;;;;2.78;2.58;;;;;;;8.03;67.11;95648.00;5036459;28;20690;-69
2021/05/08 05:10:51;;;;;;;2.63;2.38;;;;;;;8.05;67.09;95649.31;5034638;28;20029;-69
2021/05/08 05:13:17;;;;;;;2.72;2.47;;;;;;;8.06;67.30;95634.22;5034554;28;20025;-68
2021/05/08 05:15:43;;;;;;;2.65;2.45;;;;;;;8.24;67.17;95644.16;5034720;28;20056;-68
2021/05/08 05:18:08;;;;;;;3.33;2.22;;;;;;;8.42;66.97;95655.19;5034532;28;20033;-68
2021/05/08 05:20:34;;;;;;;2.35;2.15;;;;;;;8.49;66.70;95642.38;5036588;28;20040;-68
2021/05/08 05:22:59;;;;;;;4.22;2.05;;;;;;;8.77;66.14;95656.75;5034581;28;20036;-69
2021/05/08 05:25:24;;;;;;;2.25;2.08;;;;;;;8.91;66.04;95657.69;5034651;28;20026;-68
2021/05/08 05:27:50;;;;;;;2.75;2.00;;;;;;;8.99;64.80;95656.28;5033986;28;20034;-69
2021/05/08 05:30:15;;;;;;;3.45;2.28;;;;;;;8.99;64.24;95653.63;5033348;28;20056;-69
2021/05/08 05:32:41;;;;;;;2.22;2.00;;;;;;;9.08;65.12;95658.03;5036088;28;20430;-68
2021/05/08 05:35:06;;;;;;;3.03;2.38;;;;;;;9.11;64.58;95648.72;5034571;28;20506;-70
2021/05/08 05:37:32;;;;;;;2.40;2.20;;;;;;;9.22;63.93;95649.41;5032939;28;20041;-68
2021/05/08 05:39:57;;;;;;;2.60;2.35;;;;;;;9.24;64.23;95641.94;5033600;28;20737;-68
2021/05/08 05:42:23;;;;;;;4.00;2.42;;;;;;;9.38;63.72;95654.25;5030566;28;20491;-68
2021/05/08 05:44:48;;;;;;;3.30;2.20;;;;;;;9.42;63.33;95643.06;5031328;28;20383;-68
2021/05/08 05:47:22;;;;;;;3.17;1.88;;;;;;;9.54;62.63;95657.53;5032980;28;20117;-68
2021/05/08 05:49:52;;;;;;;2.95;2.20;;;;;;;9.66;62.93;95646.47;5031147;28;20121;-69
2021/05/08 05:52:19;;;;;;;3.53;1.80;;;;;;;9.81;61.10;95654.25;5031023;28;20034;-69
2021/05/08 05:54:47;;;;;;;3.35;1.90;;;;;;;9.88;61.66;95641.41;5031161;28;20041;-69
2021/05/08 05:57:12;;;;;;;1.95;1.75;;;;;;;9.87;60.89;95631.06;5030848;28;20032;-68
2021/05/08 05:59:38;;;;;;;2.10;1.90;;;;;;;9.93;60.79;95637.91;5032772;28;20434;-69
2021/05/08 06:02:05;;;;;;;1.83;1.73;;;;;;;10.05;60.62;95634.81;5030654;28;20510;-69
2021/05/08 06:04:31;;;;;;;2.22;1.77;;;;;;;10.12;60.02;95638.66;5030896;28;20088;-68
2021/05/08 06:06:56;;;;;;;2.10;1.65;;;;;;;10.11;59.70;95631.00;5030762;28;20124;-69
2021/05/08 06:09:22;;;;;;;4.78;1.70;;;;;;;10.19;59.22;95626.91;5030493;28;20120;-69
2021/05/08 06:11:47;;;;;;;2.22;2.13;;;;;;;10.18;58.11;95627.97;5030774;28;20517;-68
2021/05/08 06:14:12;;;;;;;4.15;2.53;;;;;;;10.15;58.63;95608.88;5032531;28;20021;-67
2021/05/08 06:16:38;;;;;;;2.75;2.33;;;;;;;10.32;58.55;95624.31;5029165;28;20041;-68
2021/05/08 06:19:03;;;;;;;2.83;2.40;;;;;;;10.37;58.45;95620.78;5030518;28;20069;-68
2021/05/08 06:21:29;;;;;;;2.15;1.90;;;;;;;10.45;57.78;95630.78;5030300;28;20396;-68
2021/05/08 06:23:54;;;;;;;3.10;2.25;;;;;;;10.53;57.35;95626.66;5029114;28;20025;-68
2021/05/08 06:26:19;;;;;;;3.58;2.10;;;;;;;10.60;56.57;95616.44;5031064;28;20562;-69
2021/05/08 06:28:45;;;;;;;2.00;1.80;;;;;;;10.70;57.67;95628.75;5029994;28;20033;-69
2021/05/08 06:31:10;;;;;;;2.30;2.10;;;;;;;10.71;56.91;95617.84;5018438;28;20125;-68
2021/05/08 06:33:35;;;;;;;2.05;1.85;;;;;;;10.79;56.47;95617.16;5029753;28;20542;-68
2021/05/08 06:36:01;;;;;;;2.17;1.95;;;;;;;10.91;56.05;95624.69;5030284;28;20057;-68
2021/05/08 06:38:26;;;;;;;2.00;1.80;;;;;;;11.01;55.53;95629.81;5031955;28;20471;-68
2021/05/08 06:40:52;;;;;;;3.13;2.08;;;;;;;11.05;55.29;95627.34;5030260;28;20446;-69
2021/05/08 06:43:17;;;;;;;2.75;1.80;;;;;;;11.15;55.07;95625.28;5029919;28;20480;-69
2021/05/08 06:45:42;;;;;;;4.03;2.10;;;;;;;11.19;55.63;95609.50;5030188;28;20045;-69
2021/05/08 06:48:08;;;;;;;1.92;1.83;;;;;;;11.28;55.04;95620.28;5028516;28;20040;-69
2021/05/08 06:50:34;;;;;;;3.25;1.90;;;;;;;11.30;54.80;95621.53;5031895;28;20495;-69
2021/05/08 06:53:00;;;;;;;1.92;1.83;;;;;;;11.28;54.55;95622.94;5027607;28;20449;-75
2021/05/08 06:55:26;;;;;;;2.90;1.92;;;;;;;11.38;54.77;95634.19;5029516;28;20049;-72
2021/05/08 06:57:51;;;;;;;2.05;1.85;;;;;;;11.44;54.63;95632.97;5029840;28;20120;-72
2021/05/08 07:00:18;;;;;;;2.17;1.75;;;;;;;11.47;54.84;95634.28;5029675;28;20034;-73
2021/05/08 07:02:44;;;;;;;2.75;1.73;;;;;;;11.36;55.11;95623.03;5032078;28;20052;-86
2021/05/08 07:05:10;;;;;;;1.83;1.55;;;;;;;11.58;54.27;95638.31;5029267;28;20071;-82
2021/05/08 07:07:36;;;;;;;2.00;1.45;;;;;;;11.65;53.75;95640.56;5028833;28;20423;-71
2021/05/08 07:10:03;;;;;;;2.70;1.50;;;;;;;11.55;53.16;95635.44;5029429;28;20040;-69
2021/05/08 07:12:28;;;;;;;1.83;1.60;;;;;;;11.54;52.59;95617.88;5030161;28;20538;-70
2021/05/08 07:14:54;;;;;;;1.92;1.80;;;;;;;11.67;52.09;95625.88;5029836;28;20021;-70
2021/05/08 07:17:19;;;;;;;1.58;1.42;;;;;;;11.72;52.21;95627.66;5031275;28;20075;-74
2021/05/08 07:19:44;;;;;;;1.92;1.73;;;;;;;11.81;52.50;95623.16;5029638;28;20045;-73
2021/05/08 07:22:10;;;;;;;3.33;1.75;;;;;;;11.87;52.03;95619.31;5029349;28;20046;-72
2021/05/08 07:24:35;;;;;;;3.25;1.90;;;;;;;11.67;52.79;95612.56;5029207;28;20751;-73
2021/05/08 07:27:00;;;;;;;3.58;2.08;;;;;;;11.65;52.23;95621.91;5029559;28;20029;-69
2021/05/08 07:29:26;;;;;;;1.98;1.77;;;;;;;11.83;52.92;95622.91;5030066;28;20112;-66
2021/05/08 07:31:51;;;;;;;1.95;1.85;;;;;;;11.80;52.50;95607.47;5029312;28;20044;-72
2021/05/08 07:34:17;;;;;;;1.73;1.63;;;;;;;11.91;52.81;95604.31;5029919;28;20128;-87
2021/05/08 07:36:42;;;;;;;2.08;1.63;;;;;;;12.14;51.29;95612.34;5029581;28;20043;-72
2021/05/08 07:39:08;;;;;;;2.65;2.30;;;;;;;12.22;50.85;95604.41;5029572;28;20534;-76
2021/05/08 07:41:33;;;;;;;1.83;1.55;;;;;;;12.29;51.89;95596.00;5031325;28;20017;-75
2021/05/08 07:43:59;;;;;;;1.83;1.63;;;;;;;12.44;51.39;95603.63;5029182;28;20052;-73
2021/05/08 07:46:24;;;;;;;2.13;1.70;;;;;;;12.53;50.66;95594.88;5029060;28;20034;-71
2021/05/08 07:48:50;;;;;;;2.15;1.50;;;;;;;12.68;50.11;95594.50;5027268;28;20117;-71
2021/05/08 07:51:16;;;;;;;1.80;1.70;;;;;;;12.63;47.37;95573.28;5028441;28;20041;-70
2021/05/08 07:53:41;;;;;;;3.45;1.63;;;;;;;12.73;46.45;95591.72;5030535;28;20026;-72
2021/05/08 07:56:06;;;;;;;1.95;1.73;;;;;;;12.81;45.60;95598.19;5029034;28;20097;-72
2021/05/08 07:58:32;;;;;;;1.85;1.65;;;;;;;12.87;44.96;95597.75;5028430;28;20041;-72
2021/05/08 08:00:57;;;;;;;3.55;1.80;;;;;;;12.78;45.25;95588.91;5028507;28;20045;-73
2021/05/08 08:03:22;;;;;;;2.00;1.90;;;;;;;12.89;45.38;95594.78;5028062;28;20029;-72
2021/05/08 08:05:48;;;;;;;1.83;1.70;;;;;;;12.89;41.75;95594.78;5028587;28;20075;-71
2021/05/08 08:08:13;;;;;;;2.60;1.63;;;;;;;13.05;42.48;95592.47;5030365;28;20479;-70
2021/05/08 08:10:38;;;;;;;1.60;1.50;;;;;;;13.06;42.43;95591.41;5028391;28;20041;-70
2021/05/08 08:13:04;;;;;;;1.63;1.50;;;;;;;12.92;41.81;95599.50;5028031;28;20052;-68
2021/05/08 08:15:30;;;;;;;1.65;1.42;;;;;;;13.01;42.95;95597.66;5028607;28;20080;-69
2021/05/08 08:17:56;;;;;;;2.13;1.60;;;;;;;13.18;43.63;95597.72;5028095;28;20063;-68
2021/05/08 08:20:21;;;;;;;5.05;2.13;;;;;;;12.84;42.82;95589.56;5028833;28;20102;-68
2021/05/08 08:22:47;;;;;;;1.42;1.33;;;;;;;13.06;42.67;95594.09;5028852;28;20040;-68
2021/05/08 08:25:13;;;;;;;1.50;1.20;;;;;;;12.77;42.43;95598.00;5026924;28;20455;-68
2021/05/08 08:27:40;;;;;;;1.95;1.38;;;;;;;12.98;43.48;95595.59;5028167;28;20042;-67
2021/05/08 08:30:11;;;;;;;5.13;1.50;;;;;;;13.10;42.08;95593.13;5028413;28;20026;-68
2021/05/08 08:32:36;;;;;;;1.52;1.42;;;;;;;13.00;40.61;95585.41;5029717;28;20037;-68
2021/05/08 08:35:02;;;;;;;2.05;1.73;;;;;;;13.20;41.74;95600.88;5028046;28;20033;-67
2021/05/08 08:37:28;;;;;;;2.75;1.40;;;;;;;13.02;40.82;95584.00;5027969;28;20535;-70
2021/05/08 08:39:53;;;;;;;1.52;1.10;;;;;;;13.10;41.08;95581.66;5028202;28;20040;-67
2021/05/08 08:42:19;;;;;;;1.98;1.48;;;;;;;13.12;41.28;95587.50;5028149;28;20133;-69
2021/05/08 08:44:45;;;;;;;1.40;1.30;;;;;;;13.21;41.01;95588.31;5030036;28;20029;-70
2021/05/08 08:47:30;;;;;;;2.08;1.05;;;;;;;13.39;40.97;95584.63;5027688;28;20064;-71
2021/05/08 08:50:02;;;;;;;2.38;1.30;;;;;;;13.50;40.95;95579.78;5028715;28;20128;-86
2021/05/08 08:52:28;;;;;;;1.92;1.40;;;;;;;13.45;40.38;95561.22;5030569;28;20033;-81
2021/05/08 08:54:56;;;;;;;2.03;1.60;;;;;;;13.38;40.60;95585.72;5027542;28;20048;-71
2021/05/08 08:57:26;;;;;;;1.65;1.00;;;;;;;12.53;41.90;95590.34;5028073;28;20175;-69
2021/05/08 08:59:53;;;;;;;2.13;1.17;;;;;;;12.91;41.27;95576.56;5028319;28;20022;-75
2021/05/08 09:02:19;;;;;;;1.92;1.23;;;;;;;13.31;41.61;95587.25;5030562;28;20487;-78
2021/05/08 09:04:44;;;;;;;2.22;1.40;;;;;;;13.35;41.19;95567.63;5028421;28;20056;-76
2021/05/08 09:07:11;;;;;;;2.88;1.25;;;;;;;13.47;40.24;95572.41;5027955;28;20488;-75
2021/05/08 09:09:37;;;;;;;2.38;1.30;;;;;;;13.74;40.00;95574.00;5026980;28;20483;-75
2021/05/08 09:12:03;;;;;;;1.30;1.20;;;;;;;14.02;40.32;95561.09;5028130;28;20022;-73
2021/05/08 09:14:32;;;;;;;1.70;1.13;;;;;;;13.82;39.02;95557.19;5030948;28;20109;-76
2021/05/08 09:17:02;;;;;;;1.23;1.05;;;;;;;13.66;39.78;95543.47;5030244;28;20037;-76
2021/05/08 09:19:28;;;;;;;1.33;1.20;;;;;;;13.79;39.33;95541.78;5031974;28;20095;-76
2021/05/08 09:21:54;;;;;;;3.10;1.50;;;;;;;14.04;39.05;95549.00;5032169;28;20033;-74
2021/05/08 09:24:20;;;;;;;1.83;1.10;;;;;;;14.48;38.72;95551.66;5030357;28;20048;-77
2021/05/08 09:26:49;;;;;;;1.58;0.90;;;;;;;14.81;38.69;95552.66;5033455;28;20025;-73
2021/05/08 09:29:23;;;;;;;1.00;1.00;;;;;;;15.03;38.79;95548.19;5032123;28;20046;-75
2021/05/08 09:31:57;;;;;;;1.75;0.98;;;;;;;14.01;38.21;95556.88;5030456;28;20037;-71
2021/05/08 09:34:23;;;;;;;1.27;1.05;;;;;;;14.61;39.26;95560.59;5031655;28;20037;-75
2021/05/08 09:36:57;;;;;;;0.90;0.90;;;;;;;14.95;38.13;95533.72;5031415;28;20507;-77
2021/05/08 09:39:40;;;;;;;1.45;1.10;;;;;;;15.13;37.02;95550.50;5032069;28;20037;-75
2021/05/08 09:42:06;;;;;;;2.67;1.27;;;;;;;15.46;36.86;95553.34;5031195;28;20319;-75
2021/05/08 09:44:31;;;;;;;2.08;1.20;;;;;;;15.40;36.88;95553.81;5032914;28;20499;-74
2021/05/08 09:46:59;;;;;;;1.27;0.82;;;;;;;14.27;37.51;95560.31;5031242;28;20042;-76
2021/05/08 09:49:24;;;;;;;1.20;1.08;;;;;;;13.99;38.50;95538.47;5032027;28;20495;-67
2021/05/08 09:52:02;;;;;;;1.48;1.20;;;;;;;13.82;38.73;95554.53;5041033;28;20041;-82
2021/05/08 09:54:28;;;;;;;1.50;1.00;;;;;;;14.45;38.60;95542.34;5044040;28;20060;-69
2021/05/08 09:56:53;;;;;;;1.20;0.82;;;;;;;14.58;37.21;95551.31;5030634;28;20033;-69
2021/05/08 09:59:37;;;;;;;2.47;0.70;;;;;;;14.79;37.57;95557.56;5032148;28;20022;-70
2021/05/08 10:02:03;;;;;;;1.08;0.70;;;;;;;14.87;36.54;95547.91;5031843;28;20034;-84
2021/05/08 10:04:29;;;;;;;1.58;0.80;;;;;;;14.93;36.34;95545.84;5031958;28;20033;-73
2021/05/08 10:07:08;;;;;;;1.08;0.90;;;;;;;15.18;35.48;95530.78;5031267;28;20048;-73
2021/05/08 10:09:34;;;;;;;1.02;0.65;;;;;;;14.96;35.08;95542.53;5030116;28;20380;-72
2021/05/08 10:12:04;;;;;;;1.48;0.90;;;;;;;15.96;35.50;95533.75;5030025;28;20025;-71
2021/05/08 10:14:31;;;;;;;1.17;0.63;;;;;;;15.85;34.29;95533.34;5031546;28;20035;-70
2021/05/08 10:16:59;;;;;;;0.60;0.60;;;;;;;14.85;34.92;95539.44;5030099;28;20044;-74
2021/05/08 10:19:29;;;;;;;3.30;0.70;;;;;;;14.69;34.52;95493.66;5031755;28;20064;-77
2021/05/08 10:21:56;;;;;;;0.47;0.40;;;;;;;16.30;33.08;95523.84;5030655;28;20034;-69
2021/05/08 10:24:24;;;;;;;1.45;0.80;;;;;;;15.12;33.95;95522.13;5031006;28;20064;-81
2021/05/08 10:26:50;;;;;;;1.02;0.73;;;;;;;16.10;32.94;95510.13;5030091;28;20029;-71
2021/05/08 10:29:17;;;;;;;1.45;0.75;;;;;;;15.95;31.47;95518.78;5031365;28;20022;-72
2021/05/08 10:31:43;;;;;;;1.02;0.80;;;;;;;15.97;32.41;95513.88;5030538;28;20140;-72
2021/05/08 10:34:08;;;;;;;1.08;0.50;;;;;;;16.69;32.28;95527.84;5030733;28;20149;-80
2021/05/08 10:36:46;;;;;;;1.55;0.75;;;;;;;17.84;30.10;95513.41;5030446;28;20115;-76
2021/05/08 10:39:12;;;;;;;1.05;0.60;;;;;;;18.32;29.50;95514.34;5029563;28;20133;-76
2021/05/08 10:41:53;;;;;;;0.65;0.55;;;;;;;18.74;29.75;95478.91;5032677;28;20105;-72
2021/05/08 10:44:44;;;;;;;0.53;0.47;;;;;;;17.62;29.79;95525.44;5029801;28;20045;-75
2021/05/08 10:47:13;;;;;;;1.83;0.80;;;;;;;18.53;29.80;95496.06;5030491;28;20522;-72
2021/05/08 10:49:39;;;;;;;0.47;0.47;;;;;;;18.81;27.86;95493.31;5030171;28;20049;-81
2021/05/08 10:52:05;;;;;;;0.85;0.70;;;;;;;18.93;28.13;95519.41;5030921;28;20395;-82
2021/05/08 10:54:36;;;;;;;1.05;0.77;;;;;;;19.12;28.07;95518.72;5031931;28;20036;-78
2021/05/08 10:57:16;;;;;;;2.33;0.80;;;;;;;19.28;29.31;95505.22;5030483;28;20814;-73
2021/05/08 11:00:00;;;;;;;1.27;0.50;;;;;;;19.39;26.87;95504.31;5030558;28;20046;-70
2021/05/08 11:02:44;;;;;;;2.17;1.05;;;;;;;19.41;33.61;95506.69;5029225;28;20069;-65
2021/05/08 11:05:23;;;;;;;1.40;0.80;;;;;;;19.63;31.30;95503.34;5029980;28;20042;-66
2021/05/08 11:07:48;;;;;;;1.75;1.05;;;;;;;19.62;31.01;95498.31;5029681;28;20041;-67
2021/05/08 11:10:32;;;;;;;4.13;1.42;;;;;;;19.59;32.43;95494.38;5029687;28;20107;-67
2021/05/08 11:13:11;;;;;;;0.75;0.60;;;;;;;19.08;29.54;95491.66;5029654;28;20671;-66
2021/05/08 11:15:52;;;;;;;1.27;0.70;;;;;;;16.80;31.84;95479.88;5029640;28;20047;-66
2021/05/08 11:18:29;;;;;;;1.00;0.60;;;;;;;16.88;30.21;95482.44;5027175;28;20064;-68
2021/05/08 11:20:55;;;;;;;0.80;0.70;;;;;;;16.29;31.04;95492.75;5029388;28;20041;-66
2021/05/08 11:23:21;;;;;;;1.65;0.60;;;;;;;15.53;32.18;95477.75;5031120;28;20017;-66
2021/05/08 11:25:46;;;;;;;1.38;0.65;;;;;;;15.76;32.81;95486.25;5029329;28;20130;-66
2021/05/08 11:28:11;;;;;;;1.05;0.80;;;;;;;16.04;31.20;95487.28;5029120;28;20056;-66
2021/05/08 11:30:54;;;;;;;1.95;0.68;;;;;;;16.52;31.26;95477.78;5029215;28;20117;-66
2021/05/08 11:33:24;;;;;;;1.17;0.50;;;;;;;16.76;31.87;95476.28;5029038;28;20033;-66